Time;durP1;ratioP1;P1;durP2;ratioP2;P2;SDS_P1;SDS_P2;PMS_P1;PMS_P2;Temp;Humidity;BMP_temperature;BMP_pressure;BME280_temperature;BME280_humidity;BME280_pressure;Samples;Min_cycle;Max_cycle;Signal;HPM_P1;HPM_P2
2022/08/19 00:01:26;;;;;;;20.60;18.73;;;;;;;20.32;75.03;101216.63;5113346;28;20047;-61
2022/08/19 00:03:52;;;;;;;20.98;18.92;;;;;;;20.22;75.00;101214.00;5112049;28;20051;-61
2022/08/19 00:06:18;;;;;;;20.60;18.77;;;;;;;20.11;75.17;101206.09;5113114;28;20055;-61
2022/08/19 00:08:43;;;;;;;21.27;19.25;;;;;;;20.06;75.79;101201.16;5112498;28;20470;-61
2022/08/19 00:11:09;;;;;;;21.75;19.48;;;;;;;20.04;75.81;101200.44;5111702;28;20037;-61
2022/08/19 00:13:35;;;;;;;22.02;19.38;;;;;;;20.09;75.25;101199.97;5112505;28;20024;-61
2022/08/19 00:16:02;;;;;;;22.92;20.85;;;;;;;19.98;75.73;101209.13;5113241;28;20077;-61
2022/08/19 00:18:27;;;;;;;22.08;19.88;;;;;;;19.89;75.98;101200.09;5145991;27;20027;-61
2022/08/19 00:20:53;;;;;;;21.58;19.58;;;;;;;19.92;75.25;101193.53;5113237;28;20046;-61
2022/08/19 00:23:19;;;;;;;22.58;20.55;;;;;;;19.85;75.47;101208.63;5112830;28;20023;-61
2022/08/19 00:25:45;;;;;;;23.23;20.95;;;;;;;19.77;76.29;101201.28;5112921;28;20031;-61
2022/08/19 00:28:10;;;;;;;22.17;20.08;;;;;;;19.70;76.49;101208.25;5112540;28;20466;-61
2022/08/19 00:30:36;;;;;;;23.77;21.25;;;;;;;19.77;76.71;101201.28;5094582;28;20041;-61
2022/08/19 00:33:02;;;;;;;22.67;20.48;;;;;;;19.81;76.87;101205.38;5111418;28;20027;-61
2022/08/19 00:35:27;;;;;;;22.92;20.63;;;;;;;19.83;76.12;101200.69;5112779;28;20474;-61
2022/08/19 00:37:56;;;;;;;22.42;20.33;;;;;;;19.85;75.74;101209.47;5111242;28;20506;-61
2022/08/19 00:40:22;;;;;;;22.83;20.75;;;;;;;19.85;75.77;101214.84;5111312;28;20031;-61
2022/08/19 00:42:53;;;;;;;22.75;20.65;;;;;;;19.81;76.63;101212.63;5111944;27;20039;-61
2022/08/19 00:45:22;;;;;;;21.88;19.77;;;;;;;19.75;76.53;101214.06;5112792;28;20076;-61
2022/08/19 00:47:48;;;;;;;23.15;20.75;;;;;;;19.78;76.20;101211.06;5112410;28;20103;-61
2022/08/19 00:50:16;;;;;;;22.98;20.60;;;;;;;19.68;77.00;101207.56;5112636;28;20106;-61
2022/08/19 00:52:45;;;;;;;23.73;21.40;;;;;;;19.60;76.65;101202.84;5112488;28;20054;-61
2022/08/19 00:55:21;;;;;;;25.42;22.88;;;;;;;19.60;76.96;101213.66;5112528;28;20031;-61
2022/08/19 00:57:54;;;;;;;24.73;22.30;;;;;;;19.61;76.76;101209.09;5111637;28;20059;-61
2022/08/19 01:00:25;;;;;;;24.98;22.67;;;;;;;19.58;76.92;101217.50;5111893;28;20019;-61
2022/08/19 01:02:53;;;;;;;24.27;21.85;;;;;;;19.55;76.91;101210.53;5112463;28;20067;-61
2022/08/19 01:05:23;;;;;;;23.33;20.88;;;;;;;19.49;77.17;101209.25;5112468;28;20027;-61
2022/08/19 01:07:50;;;;;;;23.15;20.80;;;;;;;19.47;77.29;101202.31;5110518;28;20015;-61
2022/08/19 01:10:19;;;;;;;23.17;20.98;;;;;;;19.51;76.85;101203.75;5111034;28;20035;-61
2022/08/19 01:12:46;;;;;;;;;;;;;;;19.71;75.24;101218.06;5111074;28;20030;-61
2022/08/19 01:15:16;;;;;;;23.80;21.70;;;;;;;19.34;77.49;101208.03;5112379;28;19994;-61
2022/08/19 01:17:43;;;;;;;24.90;22.10;;;;;;;19.32;77.59;101207.31;5112173;28;20020;-61
2022/08/19 01:20:20;;;;;;;22.95;20.73;;;;;;;19.39;77.34;101208.44;5112192;28;20075;-61
2022/08/19 01:22:51;;;;;;;21.92;19.83;;;;;;;19.28;77.45;101197.81;5111983;28;20019;-61
2022/08/19 01:25:24;;;;;;;23.23;21.13;;;;;;;19.23;77.36;101203.63;5110895;28;20157;-61
2022/08/19 01:27:50;;;;;;;23.35;20.92;;;;;;;19.23;77.41;101203.63;5111493;28;20538;-61
2022/08/19 01:30:30;;;;;;;22.77;20.35;;;;;;;19.25;77.26;101201.66;5145368;27;20035;-61
2022/08/19 01:32:56;;;;;;;23.13;20.75;;;;;;;19.20;77.87;101201.22;5111970;28;20024;-61
2022/08/19 01:35:24;;;;;;;22.55;20.38;;;;;;;19.03;78.14;101207.34;5112000;28;20039;-61
2022/08/19 01:37:49;;;;;;;23.52;21.27;;;;;;;19.08;78.00;101204.22;5111585;28;20028;-61
2022/08/19 01:40:16;;;;;;;24.50;22.10;;;;;;;18.96;78.79;101200.84;5112264;28;20032;-61
2022/08/19 01:42:42;;;;;;;26.52;23.00;;;;;;;18.92;78.83;101202.13;5111442;28;20034;-61
2022/08/19 01:45:08;;;;;;;25.45;22.85;;;;;;;18.98;78.77;101201.56;5110835;28;20039;-61
2022/08/19 01:47:37;;;;;;;25.05;22.60;;;;;;;19.02;78.61;101202.97;5111639;28;20019;-61
2022/08/19 01:50:06;;;;;;;;;;;;;;;19.19;76.96;101202.22;5112287;28;20027;-61
2022/08/19 01:52:34;;;;;;;;;;;;;;;19.24;76.18;101202.66;5111858;28;19915;-61
2022/08/19 01:55:00;;;;;;;24.15;21.65;;;;;;;19.00;77.75;101189.63;5111772;28;19907;-61
2022/08/19 01:57:26;;;;;;;26.08;23.45;;;;;;;18.73;79.17;101174.16;5111509;28;20052;-61
2022/08/19 01:59:52;;;;;;;27.83;24.70;;;;;;;18.82;79.74;101204.81;5109915;28;20055;-61
2022/08/19 02:02:19;;;;;;;27.00;24.15;;;;;;;18.83;79.88;101201.97;5112043;28;20065;-61
2022/08/19 02:04:48;;;;;;;28.20;25.35;;;;;;;18.76;80.31;101203.50;5111821;28;20023;-61
2022/08/19 02:07:13;;;;;;;28.17;24.70;;;;;;;18.75;80.25;101199.13;5093821;28;20134;-61
2022/08/19 02:09:39;;;;;;;28.85;25.77;;;;;;;18.70;80.61;101198.66;5111535;28;20522;-61
2022/08/19 02:12:07;;;;;;;28.92;25.05;;;;;;;18.67;80.65;101206.19;5113858;28;20552;-61
2022/08/19 02:14:34;;;;;;;27.55;24.65;;;;;;;18.70;80.07;101208.59;5114840;28;20031;-61
2022/08/19 02:17:00;;;;;;;27.10;24.23;;;;;;;18.83;79.75;101225.38;5115531;27;20107;-61
2022/08/19 02:19:27;;;;;;;27.92;24.92;;;;;;;18.76;79.99;101216.16;5115497;28;20110;-61
2022/08/19 02:21:52;;;;;;;30.23;25.77;;;;;;;18.73;79.81;101216.41;5113881;28;20046;-61
2022/08/19 02:24:18;;;;;;;29.35;26.27;;;;;;;18.71;80.23;101226.50;5113933;28;20462;-61
2022/08/19 02:26:43;;;;;;;28.55;25.65;;;;;;;18.58;80.50;101224.03;5097091;28;20454;-61
2022/08/19 02:29:09;;;;;;;28.30;25.30;;;;;;;18.56;80.52;101221.50;5113395;28;20023;-61
2022/08/19 02:31:37;;;;;;;30.17;27.02;;;;;;;18.58;80.80;101221.34;5115009;28;20853;-61
2022/08/19 02:34:03;;;;;;;29.15;26.05;;;;;;;18.66;80.26;101239.53;5130679;27;20062;-61
2022/08/19 02:36:28;;;;;;;29.65;26.42;;;;;;;18.54;80.85;101236.09;5114754;28;20073;-61
2022/08/19 02:38:54;;;;;;;29.55;26.15;;;;;;;18.52;80.88;101236.22;5114660;28;20020;-61
2022/08/19 02:41:28;;;;;;;29.63;26.40;;;;;;;18.57;80.78;101227.72;5114897;28;20045;-61
2022/08/19 02:43:56;;;;;;;28.98;25.98;;;;;;;18.46;81.48;101227.84;5114121;28;20020;-61
2022/08/19 02:46:28;;;;;;;30.05;26.98;;;;;;;18.41;81.34;101232.78;5113443;28;20035;-61
2022/08/19 02:48:57;;;;;;;28.65;25.48;;;;;;;18.35;81.51;101236.88;5114158;28;20019;-61
2022/08/19 02:51:34;;;;;;;31.42;27.25;;;;;;;18.39;81.78;101241.03;5114816;28;20019;-61
2022/08/19 02:54:00;;;;;;;31.48;27.70;;;;;;;18.27;81.83;101242.13;5114657;28;20023;-61
2022/08/19 02:56:27;;;;;;;32.20;28.77;;;;;;;18.25;81.90;101239.56;5114606;28;20074;-61
2022/08/19 02:58:53;;;;;;;31.13;27.60;;;;;;;18.29;82.15;101242.81;5112740;28;20043;-61
2022/08/19 03:01:22;;;;;;;30.80;27.65;;;;;;;18.35;81.93;101242.28;5113813;28;20073;-61
2022/08/19 03:03:48;;;;;;;33.13;28.75;;;;;;;18.33;82.22;101238.88;5113080;28;20055;-61
2022/08/19 03:06:15;;;;;;;31.08;27.73;;;;;;;18.39;81.64;101235.63;5114473;28;20478;-62
2022/08/19 03:08:43;;;;;;;36.42;30.20;;;;;;;18.28;81.94;101236.59;5112896;28;20459;-61
2022/08/19 03:11:29;;;;;;;32.53;29.05;;;;;;;18.42;81.50;101242.59;5114628;28;20387;-61
2022/08/19 03:13:54;;;;;;;32.10;28.80;;;;;;;18.35;81.42;101234.19;5113959;28;20479;-61
2022/08/19 03:16:25;;;;;;;32.03;28.48;;;;;;;18.25;81.74;101233.34;5112964;28;20106;-61
2022/08/19 03:18:52;;;;;;;33.17;29.60;;;;;;;18.13;82.14;101236.13;5113875;28;20454;-61
2022/08/19 03:21:21;;;;;;;31.13;27.88;;;;;;;18.24;81.81;101245.09;5114138;28;20076;-61
2022/08/19 03:23:46;;;;;;;33.15;29.70;;;;;;;18.29;81.37;101242.81;5113557;28;20478;-61
2022/08/19 03:26:14;;;;;;;35.17;31.52;;;;;;;18.22;81.96;101242.53;5095909;28;20039;-61
2022/08/19 03:28:41;;;;;;;33.88;30.27;;;;;;;18.19;82.08;101231.19;5112284;28;20107;-61
2022/08/19 03:31:12;;;;;;;34.22;30.63;;;;;;;18.21;82.42;101230.06;5114145;28;20020;-61
2022/08/19 03:33:38;;;;;;;36.15;32.05;;;;;;;18.20;82.10;101222.09;5113467;28;20482;-61
2022/08/19 03:36:20;;;;;;;36.45;32.75;;;;;;;18.23;82.13;101238.84;5112953;28;20386;-61
2022/08/19 03:38:48;;;;;;;37.22;33.42;;;;;;;18.23;82.54;101228.06;5112337;28;20046;-61
2022/08/19 03:41:19;;;;;;;35.70;32.03;;;;;;;18.21;82.32;101231.91;5130018;27;20119;-61
2022/08/19 03:43:49;;;;;;;40.25;32.83;;;;;;;18.22;82.12;101231.75;5113489;28;20461;-61
2022/08/19 03:46:20;;;;;;;35.88;32.10;;;;;;;18.21;82.24;101222.00;5095903;28;20023;-61
2022/08/19 03:48:47;;;;;;;37.58;33.53;;;;;;;18.19;81.73;101223.97;5111916;28;20467;-61
2022/08/19 03:51:21;;;;;;;38.22;34.33;;;;;;;18.10;82.37;101222.94;5113959;28;20075;-61
2022/08/19 03:53:47;;;;;;;37.95;33.92;;;;;;;18.04;82.21;101234.25;5113538;28;20500;-61
2022/08/19 03:56:14;;;;;;;39.20;35.08;;;;;;;18.03;82.68;101221.78;5113404;28;20502;-61
2022/08/19 03:58:42;;;;;;;38.33;34.47;;;;;;;17.98;82.96;101213.25;5112725;28;20024;-61
2022/08/19 04:01:11;;;;;;;37.63;33.60;;;;;;;18.02;82.71;101220.06;5113687;28;20023;-61
2022/08/19 04:03:37;;;;;;;39.65;35.70;;;;;;;18.04;83.20;101234.25;5113149;28;20024;-61
2022/08/19 04:06:18;;;;;;;38.15;34.17;;;;;;;18.11;82.76;101224.63;5129303;27;20076;-61
2022/08/19 04:08:45;;;;;;;39.47;35.47;;;;;;;17.93;82.67;101223.56;5113074;28;20024;-61
2022/08/19 04:11:15;;;;;;;38.72;34.45;;;;;;;17.87;82.72;101224.97;5113428;28;20381;-61
2022/08/19 04:13:40;;;;;;;;;;;;;;;18.06;81.24;101216.13;5112114;28;20474;-61
2022/08/19 04:16:06;;;;;;;40.25;34.10;;;;;;;17.90;83.06;101221.16;5112979;28;19914;-61
2022/08/19 04:18:33;;;;;;;39.72;35.35;;;;;;;17.83;83.32;101220.84;5112943;28;20491;-61
2022/08/19 04:21:00;;;;;;;40.35;35.90;;;;;;;17.77;83.38;101224.06;5113135;28;20028;-61
2022/08/19 04:23:30;;;;;;;41.00;36.47;;;;;;;17.80;83.33;101223.81;5112986;28;20442;-61
2022/08/19 04:25:56;;;;;;;42.83;36.45;;;;;;;17.83;82.91;101223.53;5112956;28;20029;-61
2022/08/19 04:28:24;;;;;;;40.33;36.08;;;;;;;17.80;82.81;101222.97;5112274;28;20030;-61
2022/08/19 04:30:51;;;;;;;42.33;37.05;;;;;;;17.71;83.61;101220.06;5111357;28;20027;-61
2022/08/19 04:33:20;;;;;;;42.13;36.85;;;;;;;17.76;83.13;101214.25;5112738;28;20433;-61
2022/08/19 04:35:48;;;;;;;42.00;37.10;;;;;;;17.65;83.14;101207.13;5111953;28;20062;-61
2022/08/19 04:38:15;;;;;;;43.35;37.50;;;;;;;17.68;83.38;101212.25;5112705;28;20360;-61
2022/08/19 04:43:34;;;;;;;42.10;36.83;;;;;;;17.73;82.89;101214.53;5112232;28;20118;-61
2022/08/19 04:46:07;;;;;;;42.22;37.00;;;;;;;17.59;83.01;101222.94;5112335;28;20054;-61
2022/08/19 04:48:34;;;;;;;40.75;36.40;;;;;;;17.55;83.40;101222.34;5112365;28;20024;-61
2022/08/19 04:50:59;;;;;;;42.67;36.78;;;;;;;17.47;83.43;101228.41;5112529;28;20051;-61
2022/08/19 04:53:30;;;;;;;42.33;37.80;;;;;;;17.60;83.11;101227.34;5112405;28;20429;-61
2022/08/19 04:56:04;;;;;;;43.25;36.80;;;;;;;17.62;82.97;101226.25;5112248;28;20038;-61
2022/08/19 04:58:29;;;;;;;46.00;38.33;;;;;;;17.65;82.94;101236.72;5111684;28;20559;-61
2022/08/19 05:00:55;;;;;;;47.60;39.88;;;;;;;17.54;83.88;101235.97;5110591;28;20051;-61
2022/08/19 05:03:20;;;;;;;51.25;42.75;;;;;;;17.54;84.42;101233.25;5112078;28;20031;-61
2022/08/19 05:05:50;;;;;;;46.10;38.78;;;;;;;17.50;84.34;101238.06;5110825;28;20106;-61
2022/08/19 05:08:19;;;;;;;50.08;40.13;;;;;;;17.58;84.24;101246.31;5111010;28;20062;-61
2022/08/19 05:10:49;;;;;;;55.38;42.38;;;;;;;17.55;84.48;101251.94;5112281;28;20054;-61
2022/08/19 05:13:16;;;;;;;55.50;43.65;;;;;;;17.55;85.18;101251.09;5111782;28;20020;-61
2022/08/19 05:15:43;;;;;;;57.55;44.47;;;;;;;17.56;85.58;101255.47;5112001;28;20046;-61
2022/08/19 05:23:38;;;;;;;57.38;45.95;;;;;;;17.62;85.68;101255.84;5125574;28;20042;-61
2022/08/19 05:26:04;;;;;;;63.55;46.75;;;;;;;17.65;85.80;101262.78;5110788;28;20122;-61
2022/08/19 05:28:30;;;;;;;61.15;46.65;;;;;;;17.71;85.65;101278.41;5111105;28;20457;-61
2022/08/19 05:30:55;;;;;;;66.35;49.97;;;;;;;17.61;85.95;101262.19;5110650;28;20051;-61
2022/08/19 05:33:22;;;;;;;66.10;50.75;;;;;;;17.64;86.06;101271.81;5110618;28;20032;-61
2022/08/19 05:35:49;;;;;;;66.53;50.08;;;;;;;17.64;86.17;101290.66;5110635;28;20023;-61
2022/08/19 05:38:15;;;;;;;66.53;50.50;;;;;;;17.67;86.58;101287.69;5110782;28;20093;-61
2022/08/19 05:40:41;;;;;;;66.38;52.03;;;;;;;17.70;86.35;101292.81;5112021;28;20031;-61
2022/08/19 05:43:08;;;;;;;66.75;50.53;;;;;;;17.78;86.50;101284.13;5111053;28;20027;-61
2022/08/19 05:45:39;;;;;;;66.82;49.65;;;;;;;17.76;86.52;101280.66;5111373;28;20363;-61
2022/08/19 05:48:06;;;;;;;69.13;51.00;;;;;;;17.84;85.77;101286.28;5114994;28;20020;-61
2022/08/19 05:50:32;;;;;;;72.60;51.35;;;;;;;17.82;86.12;101288.25;5114462;28;20387;-61
2022/08/19 05:52:57;;;;;;;67.32;50.13;;;;;;;17.77;85.98;101293.16;5114252;28;20046;-61
2022/08/19 05:55:25;;;;;;;64.13;49.22;;;;;;;17.68;86.28;101279.50;5114478;28;20035;-61
2022/08/19 05:57:50;;;;;;;63.20;49.00;;;;;;;17.79;86.20;101292.03;5113375;28;20048;-61
2022/08/19 06:00:16;;;;;;;63.83;49.67;;;;;;;17.82;85.95;101283.72;5131442;27;20031;-61
2022/08/19 06:02:42;;;;;;;63.15;48.88;;;;;;;17.76;86.07;101275.28;5115575;28;20027;-61
2022/08/19 06:05:08;;;;;;;63.58;48.30;;;;;;;17.75;86.13;101277.13;5114445;28;20035;-61
2022/08/19 06:07:35;;;;;;;64.70;49.70;;;;;;;17.84;86.11;101276.38;5115324;28;20457;-61
2022/08/19 06:10:02;;;;;;;60.58;47.95;;;;;;;17.80;85.99;101260.63;5115471;28;20024;-61
2022/08/19 06:12:31;;;;;;;65.40;48.67;;;;;;;17.93;86.04;101274.72;5115599;28;20421;-61
2022/08/19 06:14:57;;;;;;;68.70;48.78;;;;;;;18.07;85.40;101276.19;5113649;28;20031;-61
2022/08/19 06:17:25;;;;;;;66.75;47.42;;;;;;;18.09;84.84;101269.69;5115198;28;20019;-61
2022/08/19 06:19:51;;;;;;;63.30;47.58;;;;;;;18.11;85.29;101272.25;5113960;28;20057;-61
2022/08/19 06:22:16;;;;;;;67.50;48.35;;;;;;;18.02;85.04;101246.97;5113947;28;20024;-61
2022/08/19 06:24:41;;;;;;;65.55;47.15;;;;;;;18.12;84.94;101258.66;5113710;28;20167;-61
2022/08/19 06:27:10;;;;;;;61.95;44.85;;;;;;;18.22;85.07;101252.44;5113546;28;20035;-61
2022/08/19 06:29:35;;;;;;;63.63;45.13;;;;;;;18.12;85.04;101244.34;5114678;27;20234;-61
2022/08/19 06:32:02;;;;;;;65.47;46.15;;;;;;;18.39;84.84;101265.28;5114870;28;20035;-61
2022/08/19 06:34:32;;;;;;;61.08;45.63;;;;;;;18.38;84.74;101266.22;5115041;28;20038;-61
2022/08/19 06:37:02;;;;;;;61.58;44.85;;;;;;;18.53;84.45;101267.56;5114921;28;20076;-61
2022/08/19 06:39:32;;;;;;;63.03;44.22;;;;;;;18.62;84.28;101265.91;5115117;28;20028;-61
2022/08/19 06:42:00;;;;;;;59.60;44.80;;;;;;;18.67;84.20;101257.38;5114755;28;20035;-60
2022/08/19 06:44:35;;;;;;;57.73;43.67;;;;;;;18.63;84.39;101259.50;5113153;28;20012;-61
2022/08/19 06:47:06;;;;;;;60.75;43.35;;;;;;;18.80;84.25;101272.34;5114815;28;20022;-61
2022/08/19 06:49:31;;;;;;;57.67;43.10;;;;;;;18.92;83.89;101267.66;5113440;28;20061;-61
2022/08/19 06:51:58;;;;;;;64.00;41.65;;;;;;;19.01;83.85;101271.38;5113279;28;20395;-61
2022/08/19 06:54:25;;;;;;;57.33;41.15;;;;;;;18.99;83.76;101267.94;5113443;28;20442;-61
2022/08/19 06:56:51;;;;;;;59.83;41.13;;;;;;;19.05;84.05;101262.84;5114301;28;20045;-61
2022/08/19 06:59:20;;;;;;;56.15;40.60;;;;;;;19.28;83.56;101270.63;5146215;27;20023;-60
2022/08/19 07:01:49;;;;;;;54.92;41.00;;;;;;;19.41;82.39;101273.91;5114523;28;20091;-61
2022/08/19 07:04:19;;;;;;;53.30;39.00;;;;;;;19.50;82.68;101267.66;5114526;28;20026;-61
2022/08/19 07:06:45;;;;;;;54.40;38.00;;;;;;;19.58;81.60;101269.59;5114723;28;20027;-61
2022/08/19 07:09:14;;;;;;;50.72;36.83;;;;;;;19.58;81.52;101263.34;5114477;28;20539;-61
2022/08/19 07:11:47;;;;;;;50.17;36.90;;;;;;;19.57;81.89;101267.06;5114196;28;20059;-60
2022/08/19 07:14:20;;;;;;;48.38;35.10;;;;;;;19.63;81.16;101271.88;5114077;28;20020;-61
2022/08/19 07:16:47;;;;;;;49.10;34.65;;;;;;;19.65;80.89;101276.16;5147606;27;20077;-60
2022/08/19 07:19:14;;;;;;;53.47;36.20;;;;;;;19.75;81.28;101268.03;5114349;28;20026;-60
2022/08/19 07:21:41;;;;;;;50.28;35.55;;;;;;;19.76;81.23;101274.28;5114180;28;20019;-61
2022/08/19 07:24:07;;;;;;;49.08;35.28;;;;;;;19.90;80.76;101279.22;5114054;28;20031;-61
2022/08/19 07:26:38;;;;;;;48.90;33.47;;;;;;;20.05;80.93;101287.69;5113811;28;20049;-61
2022/08/19 07:29:05;;;;;;;44.38;33.42;;;;;;;20.04;80.41;101291.41;5112043;28;20107;-61
2022/08/19 07:31:30;;;;;;;49.75;34.38;;;;;;;20.12;80.23;101295.06;5113972;28;20737;-61
2022/08/19 07:33:56;;;;;;;42.28;31.10;;;;;;;20.16;79.62;101290.22;5113697;28;20039;-61
2022/08/19 07:36:25;;;;;;;42.35;31.33;;;;;;;20.16;80.27;101282.97;5113999;28;20019;-61
2022/08/19 07:38:54;;;;;;;43.85;33.00;;;;;;;20.39;80.20;101296.09;5112140;28;20063;-61
2022/08/19 07:41:24;;;;;;;43.40;32.63;;;;;;;20.51;80.26;101289.47;5112538;28;20019;-61
2022/08/19 07:43:51;;;;;;;47.60;36.70;;;;;;;20.53;79.11;101301.03;5113106;28;20030;-60
2022/08/19 07:46:20;;;;;;;51.85;38.95;;;;;;;20.45;79.10;101305.44;5112469;28;20031;-61
2022/08/19 07:48:47;;;;;;;53.00;40.45;;;;;;;20.35;79.02;101310.88;5113513;28;20020;-61
2022/08/19 07:51:14;;;;;;;54.30;42.50;;;;;;;20.24;79.40;101320.03;5113909;28;20023;-61
2022/08/19 07:53:40;;;;;;;59.53;45.85;;;;;;;20.19;79.93;101323.19;5113313;28;20096;-60
2022/08/19 07:56:06;;;;;;;61.40;45.67;;;;;;;20.16;79.53;101320.78;5111858;28;20055;-61
2022/08/19 07:58:34;;;;;;;61.17;47.78;;;;;;;20.13;80.30;101325.63;5111434;28;20028;-61
2022/08/19 08:00:59;;;;;;;65.82;48.80;;;;;;;20.09;80.73;101322.38;5112111;28;20031;-60
2022/08/19 08:11:48;;;;;;;63.78;47.85;;;;;;;20.15;79.90;101318.25;5113235;28;20542;-61
2022/08/19 08:14:15;;;;;;;59.08;46.00;;;;;;;20.11;81.16;101324.91;5111544;28;20032;-62
2022/08/19 08:16:43;;;;;;;58.83;45.10;;;;;;;20.23;79.97;101328.28;5113224;28;20470;-56
2022/08/19 08:19:09;;;;;;;53.10;44.55;;;;;;;20.22;79.65;101330.13;5111473;28;20051;-56
2022/08/19 08:21:34;;;;;;;59.03;47.78;;;;;;;20.16;80.22;101330.72;5113026;28;20084;-56
2022/08/19 08:24:00;;;;;;;55.80;44.58;;;;;;;20.17;79.72;101335.13;5112372;28;20486;-56
2022/08/19 08:26:28;;;;;;;58.03;46.28;;;;;;;20.13;79.29;101336.44;5112869;28;20023;-56
2022/08/19 08:28:54;;;;;;;59.00;47.33;;;;;;;20.08;79.69;101336.84;5112263;28;20466;-56
2022/08/19 08:31:20;;;;;;;57.63;47.70;;;;;;;20.00;80.10;101347.56;5111495;28;20034;-56
2022/08/19 08:33:46;;;;;;;55.92;45.47;;;;;;;20.00;80.18;101342.16;5112690;28;20028;-56
2022/08/19 08:36:15;;;;;;;55.53;44.70;;;;;;;20.08;80.45;101350.34;5111829;28;20134;-56
2022/08/19 08:38:45;;;;;;;62.72;44.33;;;;;;;20.15;79.89;101345.25;5112618;28;20024;-56
2022/08/19 08:41:28;;;;;;;53.55;42.72;;;;;;;20.13;79.72;101350.78;5111585;28;20409;-56
2022/08/19 08:43:56;;;;;;;51.20;40.08;;;;;;;20.05;79.99;101356.06;5110751;28;20475;-56
2022/08/19 08:46:38;;;;;;;53.50;41.17;;;;;;;20.19;79.89;101355.59;5112566;28;20027;-56
2022/08/19 08:49:33;;;;;;;51.85;38.25;;;;;;;20.43;79.91;101365.88;5112321;28;20026;-56
2022/08/19 08:52:05;;;;;;;52.40;37.60;;;;;;;20.42;79.07;101366.91;5112231;28;20027;-56
2022/08/19 08:54:37;;;;;;;45.70;36.72;;;;;;;20.32;78.50;101367.91;5112372;28;20031;-56
2022/08/19 08:57:10;;;;;;;48.55;37.20;;;;;;;20.26;78.95;101360.41;5112149;28;20052;-56
2022/08/19 08:59:39;;;;;;;53.40;38.83;;;;;;;20.28;79.33;101358.41;5111795;28;20421;-56
2022/08/19 09:02:04;;;;;;;51.22;38.67;;;;;;;20.33;79.22;101356.13;5112303;28;20489;-56
2022/08/19 09:04:30;;;;;;;52.38;38.70;;;;;;;20.41;78.77;101356.22;5112269;28;20023;-56
2022/08/19 09:07:34;;;;;;;50.90;40.90;;;;;;;20.49;78.30;101353.63;5111871;28;20101;-56
2022/08/19 09:10:18;;;;;;;60.60;43.80;;;;;;;20.51;78.51;101362.44;5111050;28;20019;-56
2022/08/19 09:13:17;;;;;;;51.85;43.08;;;;;;;20.37;77.78;101311.59;5111807;28;20030;-56
2022/08/19 09:15:52;;;;;;;55.05;44.15;;;;;;;20.72;77.74;101356.81;5112284;28;20471;-56
2022/08/19 09:18:18;;;;;;;52.80;42.97;;;;;;;20.84;77.39;101360.19;5112027;28;20024;-56
2022/08/19 09:20:46;;;;;;;53.97;42.35;;;;;;;20.97;76.95;101362.50;5111398;28;20042;-56
2022/08/19 09:23:12;;;;;;;52.53;40.28;;;;;;;20.99;75.10;101357.81;5110653;28;20030;-56
2022/08/19 09:25:39;;;;;;;53.90;41.63;;;;;;;20.76;75.71;101357.38;5145131;27;20046;-56
2022/08/19 09:28:05;;;;;;;55.28;40.13;;;;;;;20.72;77.07;101367.63;5110072;28;20764;-56
2022/08/19 09:30:38;;;;;;;48.78;39.22;;;;;;;20.69;77.30;101373.34;5111674;28;20030;-56
2022/08/19 09:33:05;;;;;;;47.53;37.67;;;;;;;20.60;77.00;101376.94;5111746;28;20023;-56
2022/08/19 09:35:31;;;;;;;49.50;38.72;;;;;;;20.50;77.08;101368.88;5111737;28;20437;-56
2022/08/19 09:37:59;;;;;;;48.35;38.70;;;;;;;20.47;77.60;101371.88;5111772;28;20027;-56
2022/08/19 09:40:25;;;;;;;55.05;38.83;;;;;;;20.48;77.30;101370.00;5111874;28;20491;-56
2022/08/19 09:42:52;;;;;;;52.03;41.65;;;;;;;20.53;77.85;101374.00;5111147;28;20366;-56
2022/08/19 09:45:21;;;;;;;47.95;39.00;;;;;;;20.52;77.22;101376.81;5110787;28;20051;-56
2022/08/19 09:47:51;;;;;;;52.72;40.17;;;;;;;20.61;76.86;101367.84;5110460;28;20412;-56
2022/08/19 09:50:18;;;;;;;48.13;39.30;;;;;;;20.54;76.75;101364.88;5111616;28;20027;-56
2022/08/19 09:52:44;;;;;;;52.13;39.10;;;;;;;20.67;76.71;101383.44;5110727;28;20054;-56
2022/08/19 09:55:10;;;;;;;51.22;36.33;;;;;;;20.75;77.52;101377.31;5111655;28;20458;-56
2022/08/19 09:57:36;;;;;;;49.63;36.78;;;;;;;20.77;76.48;101383.44;5109997;28;20406;-56
2022/08/19 10:00:07;;;;;;;45.75;37.72;;;;;;;20.74;77.07;101375.63;5111378;28;20020;-56
2022/08/19 10:02:33;;;;;;;50.75;36.67;;;;;;;20.79;77.71;101379.53;5111655;28;20062;-56
2022/08/19 10:07:46;;;;;;;47.20;37.15;;;;;;;20.89;75.92;101390.31;5111348;28;20173;-56
2022/08/19 10:10:12;;;;;;;47.80;37.50;;;;;;;20.90;76.53;101389.31;5111763;28;20016;-56
2022/08/19 10:12:38;;;;;;;48.70;35.72;;;;;;;20.92;76.43;101379.22;5110018;28;20110;-56
2022/08/19 10:15:05;;;;;;;48.20;36.35;;;;;;;20.97;76.31;101386.84;5127389;27;20153;-56
2022/08/19 10:17:35;;;;;;;46.95;35.20;;;;;;;20.90;76.47;101375.78;5110315;28;20051;-56
2022/08/19 10:20:02;;;;;;;;;;;;;;;21.14;76.27;101380.63;5093792;28;20024;-56
2022/08/19 10:22:31;;;;;;;46.80;34.92;;;;;;;21.17;75.27;101371.34;5110268;28;20277;-56
2022/08/19 10:24:57;;;;;;;51.78;33.78;;;;;;;21.30;75.31;101371.84;5111620;28;20116;-56
2022/08/19 10:27:26;;;;;;;52.92;35.40;;;;;;;21.40;75.04;101371.78;5127300;27;20475;-56
2022/08/19 10:29:52;;;;;;;50.42;34.53;;;;;;;21.51;73.67;101375.13;5110746;28;20030;-56
2022/08/19 10:32:18;;;;;;;45.45;33.90;;;;;;;21.52;73.78;101376.81;5109817;28;20036;-56
2022/08/19 10:34:43;;;;;;;50.17;35.10;;;;;;;21.52;74.29;101376.81;5112404;28;20505;-56
2022/08/19 10:37:12;;;;;;;46.10;34.58;;;;;;;21.54;73.52;101377.50;5130760;27;20085;-56
2022/08/19 10:39:37;;;;;;;49.75;33.78;;;;;;;21.59;74.02;101377.06;5114758;27;20039;-56
2022/08/19 10:42:10;;;;;;;45.75;33.53;;;;;;;21.58;72.88;101377.19;5096202;28;20027;-56
2022/08/19 10:44:36;;;;;;;44.58;33.60;;;;;;;21.65;72.74;101364.72;5114153;28;20103;-56
2022/08/19 10:47:02;;;;;;;36.75;30.85;;;;;;;21.71;72.40;101373.09;5130259;27;20072;-56
2022/08/19 10:49:27;;;;;;;43.45;32.20;;;;;;;21.77;71.87;101363.50;5130291;27;20032;-56
2022/08/19 10:57:24;;;;;;;40.63;31.83;;;;;;;22.01;70.70;101357.41;5114662;28;20066;-56
2022/08/19 10:59:50;;;;;;;40.38;33.05;;;;;;;22.12;70.53;101358.97;5113855;28;20035;-56
2022/08/19 11:02:16;;;;;;;39.65;31.02;;;;;;;22.23;69.78;101356.03;5114351;28;20024;-56
2022/08/19 11:04:42;;;;;;;44.15;33.13;;;;;;;22.27;69.62;101353.88;5114644;28;20018;-56
2022/08/19 11:07:11;;;;;;;44.90;35.45;;;;;;;22.31;70.48;101357.94;5096145;28;20478;-56
2022/08/19 11:09:41;;;;;;;47.60;37.45;;;;;;;22.30;69.79;101354.41;5113156;28;20428;-56
2022/08/19 11:12:07;;;;;;;46.10;36.92;;;;;;;22.36;69.68;101361.03;5114188;28;20023;-56
2022/08/19 11:14:34;;;;;;;51.10;41.50;;;;;;;22.32;68.85;101360.50;5113870;28;20043;-56
2022/08/19 11:17:00;;;;;;;48.58;38.40;;;;;;;22.44;68.36;101353.81;5114033;28;20051;-56
2022/08/19 11:19:26;;;;;;;47.42;37.25;;;;;;;22.58;68.80;101355.03;5112779;28;20024;-56
2022/08/19 11:21:53;;;;;;;47.80;37.70;;;;;;;22.78;68.30;101355.63;5112766;28;20022;-57
2022/08/19 11:24:22;;;;;;;48.20;37.17;;;;;;;22.99;67.83;101363.34;5114133;28;20020;-56
2022/08/19 11:26:51;;;;;;;51.83;37.58;;;;;;;23.11;67.40;101361.16;5114171;28;20424;-56
2022/08/19 11:29:19;;;;;;;47.78;37.28;;;;;;;23.38;66.94;101360.00;5112274;28;20359;-56
2022/08/19 11:31:47;;;;;;;45.55;35.25;;;;;;;23.78;64.80;101353.78;5113949;27;20032;-56
2022/08/19 11:34:19;;;;;;;42.75;32.75;;;;;;;23.82;63.85;101361.59;5113964;28;20059;-56
2022/08/19 11:36:47;;;;;;;39.05;32.58;;;;;;;23.72;63.20;101349.03;5114083;28;20452;-56
2022/08/19 11:39:15;;;;;;;38.08;28.58;;;;;;;23.82;64.17;101337.97;5113809;28;20015;-56
2022/08/19 11:41:41;;;;;;;34.63;29.05;;;;;;;23.82;63.12;101339.84;5113811;28;20458;-56